Mehmet Bey — 9HUD6 — position and weather

sailwx.info

Track history (hours):
 
Tides and Currents Weather Stations Pressure Air Temp Water Temp Dewpoint Dewpoint Depression Visibility Wind Speed Wind Dir Waves Ship Positions

Mehmet Bey

Last reported at 2015-May-06 18:24 UTC. Time now 2015-May-06 19:31 UTC.
Position N 31°38' E 031°47'.

Length 131 m; draft 8.5 m.

Type: Cargo ship. MMSI: 248864000.

Date/timePositionNaut miles runAvg speedWind from/ knotsBaromVisibWave heightAir tempDewpointWater temp
2015-May-06 18:24N 31°38' E 031°47'2 1.4
2015-May-06 17:09N 31°36' E 031°46'0 0.0
2015-May-06 16:33N 31°36' E 031°46'0 0.0
2015-May-06 14:09N 31°36' E 031°46'0 0.0
2015-May-06 09:15N 31°36' E 031°46'0 0.0
2015-May-06 03:33N 31°36' E 031°46'0 0.0
2015-May-05 23:30N 31°36' E 031°46'0 0.0
2015-May-05 20:27N 31°36' E 031°46'112 2.3
2015-May-03 20:15N 33°06' E 033°06'10 8.3
2015-May-03 19:04N 33°14' E 033°11'4 8.5
2015-May-03 18:34N 33°18' E 033°13'9 8.6
2015-May-03 17:34N 33°26' E 033°18'9 8.6
2015-May-03 16:34N 33°34' E 033°23'8 8.4
2015-May-03 15:33N 33°41' E 033°27'  
Track history (hours):
 
Tides and Currents Weather Stations Pressure Air Temp Water Temp Dewpoint Dewpoint Depression Visibility Wind Speed Wind Dir Waves Ship Positions

Mehmet Bey

Last reported at 2015-May-06 18:24 UTC. Time now 2015-May-06 19:31 UTC.
Position N 31°38' E 031°47'.

Length 131 m; draft 8.5 m.

Type: Cargo ship. MMSI: 248864000.

Date/timePositionNaut miles runAvg speedWind from/ knotsBaromVisibWave heightAir tempDewpointWater temp
2015-May-06 18:24N 31°38' E 031°47'2 1.4
2015-May-06 17:09N 31°36' E 031°46'0 0.0
2015-May-06 16:33N 31°36' E 031°46'0 0.0
2015-May-06 14:09N 31°36' E 031°46'0 0.0
2015-May-06 09:15N 31°36' E 031°46'0 0.0
2015-May-06 03:33N 31°36' E 031°46'0 0.0
2015-May-05 23:30N 31°36' E 031°46'0 0.0
2015-May-05 20:27N 31°36' E 031°46'112 2.3
2015-May-03 20:15N 33°06' E 033°06'10 8.3
2015-May-03 19:04N 33°14' E 033°11'4 8.5
2015-May-03 18:34N 33°18' E 033°13'9 8.6
2015-May-03 17:34N 33°26' E 033°18'9 8.6
2015-May-03 16:34N 33°34' E 033°23'8 8.4
2015-May-03 15:33N 33°41' E 033°27'  

Dump ship's entire track history